sensor_id;sensor_type;location;lat;lon;timestamp;pressure;altitude;pressure_sealevel;temperature;humidity
71248;BME280;73325;51.138;6.950;2024-02-14T00:02:20;101119.00;;;9.61;84.71
71248;BME280;73325;51.138;6.950;2024-02-14T00:04:51;101118.00;;;9.61;85.64
71248;BME280;73325;51.138;6.950;2024-02-14T00:07:21;101116.00;;;9.60;85.00
71248;BME280;73325;51.138;6.950;2024-02-14T00:09:51;101114.00;;;9.60;85.49
71248;BME280;73325;51.138;6.950;2024-02-14T00:12:22;101114.00;;;9.59;86.04
71248;BME280;73325;51.138;6.950;2024-02-14T00:14:52;101113.00;;;9.57;86.03
71248;BME280;73325;51.138;6.950;2024-02-14T00:17:23;101112.00;;;9.56;85.96
71248;BME280;73325;51.138;6.950;2024-02-14T00:19:54;101111.00;;;9.54;85.94
71248;BME280;73325;51.138;6.950;2024-02-14T00:22:25;101110.00;;;9.53;86.08
71248;BME280;73325;51.138;6.950;2024-02-14T00:25:05;101108.00;;;9.52;86.28
71248;BME280;73325;51.138;6.950;2024-02-14T00:27:27;101107.00;;;9.51;86.22
71248;BME280;73325;51.138;6.950;2024-02-14T00:29:57;101108.00;;;9.50;87.12
71248;BME280;73325;51.138;6.950;2024-02-14T00:32:28;101108.00;;;9.49;86.78
71248;BME280;73325;51.138;6.950;2024-02-14T00:34:58;101107.00;;;9.47;88.79
71248;BME280;73325;51.138;6.950;2024-02-14T00:37:30;101106.00;;;9.44;89.21
71248;BME280;73325;51.138;6.950;2024-02-14T00:39:59;101104.00;;;9.40;89.96
71248;BME280;73325;51.138;6.950;2024-02-14T00:42:33;101103.00;;;9.35;90.48
71248;BME280;73325;51.138;6.950;2024-02-14T00:45:03;101100.00;;;9.30;90.37
71248;BME280;73325;51.138;6.950;2024-02-14T00:47:33;101098.00;;;9.25;90.27
71248;BME280;73325;51.138;6.950;2024-02-14T00:50:03;101096.00;;;9.21;90.37
71248;BME280;73325;51.138;6.950;2024-02-14T01:00:21;101093.00;;;9.12;92.50
71248;BME280;73325;51.138;6.950;2024-02-14T01:02:32;101092.00;;;9.11;92.20
71248;BME280;73325;51.138;6.950;2024-02-14T01:05:02;101092.00;;;9.09;92.40
71248;BME280;73325;51.138;6.950;2024-02-14T01:07:32;101092.00;;;9.09;92.45
71248;BME280;73325;51.138;6.950;2024-02-14T01:10:02;101092.00;;;9.08;91.68
71248;BME280;73325;51.138;6.950;2024-02-14T01:12:33;101091.00;;;9.08;91.53
71248;BME280;73325;51.138;6.950;2024-02-14T01:15:03;101089.00;;;9.09;91.55
71248;BME280;73325;51.138;6.950;2024-02-14T01:17:33;101087.00;;;9.10;91.53
71248;BME280;73325;51.138;6.950;2024-02-14T01:20:05;101084.00;;;9.11;91.54
71248;BME280;73325;51.138;6.950;2024-02-14T01:22:37;101083.00;;;9.12;92.18
71248;BME280;73325;51.138;6.950;2024-02-14T01:25:05;101079.00;;;9.12;92.22
71248;BME280;73325;51.138;6.950;2024-02-14T01:27:35;101077.00;;;9.12;91.68
71248;BME280;73325;51.138;6.950;2024-02-14T01:30:06;101075.00;;;9.13;91.47
71248;BME280;73325;51.138;6.950;2024-02-14T01:32:35;101072.00;;;9.14;91.62
71248;BME280;73325;51.138;6.950;2024-02-14T01:35:07;101071.00;;;9.15;91.45
71248;BME280;73325;51.138;6.950;2024-02-14T01:37:37;101070.00;;;9.16;90.94
71248;BME280;73325;51.138;6.950;2024-02-14T01:40:08;101070.00;;;9.19;90.71
71248;BME280;73325;51.138;6.950;2024-02-14T01:42:38;101069.00;;;9.21;90.65
71248;BME280;73325;51.138;6.950;2024-02-14T01:45:09;101067.00;;;9.23;90.75
71248;BME280;73325;51.138;6.950;2024-02-14T01:47:40;101067.00;;;9.25;90.15
71248;BME280;73325;51.138;6.950;2024-02-14T01:50:11;101068.00;;;9.28;90.44
71248;BME280;73325;51.138;6.950;2024-02-14T01:52:42;101069.00;;;9.30;90.37
71248;BME280;73325;51.138;6.950;2024-02-14T01:55:12;101069.00;;;9.32;89.81
71248;BME280;73325;51.138;6.950;2024-02-14T01:57:43;101069.00;;;9.34;89.79
71248;BME280;73325;51.138;6.950;2024-02-14T02:00:13;101068.00;;;9.37;90.08
71248;BME280;73325;51.138;6.950;2024-02-14T02:02:42;101067.00;;;9.39;89.40
71248;BME280;73325;51.138;6.950;2024-02-14T02:05:13;101065.00;;;9.42;89.16
71248;BME280;73325;51.138;6.950;2024-02-14T02:07:44;101064.00;;;9.45;89.36
71248;BME280;73325;51.138;6.950;2024-02-14T02:10:14;101064.00;;;9.48;89.49
71248;BME280;73325;51.138;6.950;2024-02-14T02:12:45;101065.00;;;9.50;89.33
71248;BME280;73325;51.138;6.950;2024-02-14T02:15:17;101064.00;;;9.53;89.17
71248;BME280;73325;51.138;6.950;2024-02-14T02:17:47;101063.00;;;9.54;89.33
71248;BME280;73325;51.138;6.950;2024-02-14T02:20:17;101061.00;;;9.56;89.25
71248;BME280;73325;51.138;6.950;2024-02-14T02:22:47;101060.00;;;9.57;89.02
71248;BME280;73325;51.138;6.950;2024-02-14T02:25:18;101058.00;;;9.59;89.24
71248;BME280;73325;51.138;6.950;2024-02-14T02:27:48;101056.00;;;9.60;88.88
71248;BME280;73325;51.138;6.950;2024-02-14T02:30:18;101056.00;;;9.62;89.02
71248;BME280;73325;51.138;6.950;2024-02-14T02:32:49;101056.00;;;9.63;88.61
71248;BME280;73325;51.138;6.950;2024-02-14T02:35:19;101057.00;;;9.65;88.67
71248;BME280;73325;51.138;6.950;2024-02-14T02:37:50;101059.00;;;9.67;88.85
71248;BME280;73325;51.138;6.950;2024-02-14T02:40:20;101061.00;;;9.68;88.81
71248;BME280;73325;51.138;6.950;2024-02-14T02:42:51;101062.00;;;9.69;88.90
71248;BME280;73325;51.138;6.950;2024-02-14T02:45:23;101064.00;;;9.70;88.94
71248;BME280;73325;51.138;6.950;2024-02-14T02:47:52;101067.00;;;9.71;89.03
71248;BME280;73325;51.138;6.950;2024-02-14T02:50:22;101068.00;;;9.72;89.40
71248;BME280;73325;51.138;6.950;2024-02-14T02:52:52;101070.00;;;9.73;89.13
71248;BME280;73325;51.138;6.950;2024-02-14T02:55:23;101071.00;;;9.74;89.08
71248;BME280;73325;51.138;6.950;2024-02-14T02:57:53;101072.00;;;9.74;89.39
71248;BME280;73325;51.138;6.950;2024-02-14T03:00:24;101072.00;;;9.75;89.71
71248;BME280;73325;51.138;6.950;2024-02-14T03:02:54;101072.00;;;9.76;89.80
71248;BME280;73325;51.138;6.950;2024-02-14T03:05:25;101071.00;;;9.77;89.33
71248;BME280;73325;51.138;6.950;2024-02-14T03:07:55;101069.00;;;9.78;89.47
71248;BME280;73325;51.138;6.950;2024-02-14T03:10:26;101068.00;;;9.79;89.51
71248;BME280;73325;51.138;6.950;2024-02-14T03:12:56;101068.00;;;9.80;89.38
71248;BME280;73325;51.138;6.950;2024-02-14T03:15:27;101067.00;;;9.81;89.60
71248;BME280;73325;51.138;6.950;2024-02-14T03:17:58;101066.00;;;9.82;89.25
71248;BME280;73325;51.138;6.950;2024-02-14T03:20:29;101066.00;;;9.83;89.60
71248;BME280;73325;51.138;6.950;2024-02-14T03:22:59;101065.00;;;9.85;89.58
71248;BME280;73325;51.138;6.950;2024-02-14T03:25:29;101065.00;;;9.86;89.67
71248;BME280;73325;51.138;6.950;2024-02-14T03:28:00;101065.00;;;9.87;89.71
71248;BME280;73325;51.138;6.950;2024-02-14T03:30:30;101063.00;;;9.88;89.80
71248;BME280;73325;51.138;6.950;2024-02-14T03:33:02;101062.00;;;9.89;90.40
71248;BME280;73325;51.138;6.950;2024-02-14T03:35:33;101061.00;;;9.90;91.19
71248;BME280;73325;51.138;6.950;2024-02-14T03:38:02;101059.00;;;9.89;91.51
71248;BME280;73325;51.138;6.950;2024-02-14T03:40:32;101058.00;;;9.88;91.65
71248;BME280;73325;51.138;6.950;2024-02-14T03:43:01;101057.00;;;9.87;91.61
71248;BME280;73325;51.138;6.950;2024-02-14T03:45:32;101057.00;;;9.85;92.10
71248;BME280;73325;51.138;6.950;2024-02-14T03:48:05;101058.00;;;9.84;92.07
71248;BME280;73325;51.138;6.950;2024-02-14T03:50:35;101058.00;;;9.82;91.87
71248;BME280;73325;51.138;6.950;2024-02-14T03:53:05;101059.00;;;9.82;91.90
71248;BME280;73325;51.138;6.950;2024-02-14T03:55:36;101058.00;;;9.81;91.74
71248;BME280;73325;51.138;6.950;2024-02-14T03:58:07;101059.00;;;9.82;91.90
71248;BME280;73325;51.138;6.950;2024-02-14T04:00:37;101060.00;;;9.82;91.90
71248;BME280;73325;51.138;6.950;2024-02-14T04:03:07;101062.00;;;9.83;91.62
71248;BME280;73325;51.138;6.950;2024-02-14T04:05:38;101062.00;;;9.84;91.56
71248;BME280;73325;51.138;6.950;2024-02-14T04:08:07;101062.00;;;9.85;91.38
71248;BME280;73325;51.138;6.950;2024-02-14T04:10:38;101062.00;;;9.87;91.16
71248;BME280;73325;51.138;6.950;2024-02-14T04:13:09;101061.00;;;9.89;91.27
71248;BME280;73325;51.138;6.950;2024-02-14T04:15:40;101060.00;;;9.90;91.38
71248;BME280;73325;51.138;6.950;2024-02-14T04:18:10;101059.00;;;9.92;91.25
71248;BME280;73325;51.138;6.950;2024-02-14T04:20:40;101059.00;;;9.94;91.08
71248;BME280;73325;51.138;6.950;2024-02-14T04:23:11;101061.00;;;9.96;91.05
71248;BME280;73325;51.138;6.950;2024-02-14T04:25:42;101063.00;;;9.98;91.05
71248;BME280;73325;51.138;6.950;2024-02-14T04:28:12;101065.00;;;9.99;91.01
71248;BME280;73325;51.138;6.950;2024-02-14T04:30:42;101069.00;;;10.01;91.15
71248;BME280;73325;51.138;6.950;2024-02-14T04:33:13;101071.00;;;10.02;91.00
71248;BME280;73325;51.138;6.950;2024-02-14T04:35:44;101073.00;;;10.04;90.91
71248;BME280;73325;51.138;6.950;2024-02-14T04:38:14;101074.00;;;10.06;90.81
71248;BME280;73325;51.138;6.950;2024-02-14T04:40:44;101073.00;;;10.08;90.78
71248;BME280;73325;51.138;6.950;2024-02-14T04:43:15;101074.00;;;10.10;90.93
71248;BME280;73325;51.138;6.950;2024-02-14T04:45:46;101074.00;;;10.11;90.72
71248;BME280;73325;51.138;6.950;2024-02-14T04:48:16;101075.00;;;10.13;90.90
71248;BME280;73325;51.138;6.950;2024-02-14T04:50:46;101077.00;;;10.14;90.76
71248;BME280;73325;51.138;6.950;2024-02-14T04:53:16;101076.00;;;10.15;90.82
71248;BME280;73325;51.138;6.950;2024-02-14T04:55:48;101077.00;;;10.16;90.84
71248;BME280;73325;51.138;6.950;2024-02-14T04:58:37;101078.00;;;10.17;90.91
71248;BME280;73325;51.138;6.950;2024-02-14T05:00:55;101080.00;;;10.17;90.82
71248;BME280;73325;51.138;6.950;2024-02-14T05:03:19;101082.00;;;10.18;90.89
71248;BME280;73325;51.138;6.950;2024-02-14T05:05:50;101086.00;;;10.18;90.96
71248;BME280;73325;51.138;6.950;2024-02-14T05:08:19;101089.00;;;10.19;90.89
71248;BME280;73325;51.138;6.950;2024-02-14T05:10:50;101091.00;;;10.19;90.90
71248;BME280;73325;51.138;6.950;2024-02-14T05:13:21;101092.00;;;10.20;90.93
71248;BME280;73325;51.138;6.950;2024-02-14T05:15:51;101094.00;;;10.21;90.85
71248;BME280;73325;51.138;6.950;2024-02-14T05:18:22;101094.00;;;10.21;90.79
71248;BME280;73325;51.138;6.950;2024-02-14T05:20:52;101095.00;;;10.22;90.79
71248;BME280;73325;51.138;6.950;2024-02-14T05:23:23;101096.00;;;10.23;90.85
71248;BME280;73325;51.138;6.950;2024-02-14T05:25:54;101098.00;;;10.23;90.75
71248;BME280;73325;51.138;6.950;2024-02-14T05:28:25;101100.00;;;10.24;90.84
71248;BME280;73325;51.138;6.950;2024-02-14T05:30:56;101102.00;;;10.25;91.30
71248;BME280;73325;51.138;6.950;2024-02-14T05:33:41;101105.00;;;10.25;92.41
71248;BME280;73325;51.138;6.950;2024-02-14T05:35:58;101106.00;;;10.24;93.56
71248;BME280;73325;51.138;6.950;2024-02-14T05:38:27;101110.00;;;10.22;93.76
71248;BME280;73325;51.138;6.950;2024-02-14T05:40:58;101112.00;;;10.19;94.17
71248;BME280;73325;51.138;6.950;2024-02-14T05:43:28;101115.00;;;10.15;94.33
71248;BME280;73325;51.138;6.950;2024-02-14T05:45:58;101117.00;;;10.12;94.55
71248;BME280;73325;51.138;6.950;2024-02-14T05:48:29;101119.00;;;10.08;94.71
71248;BME280;73325;51.138;6.950;2024-02-14T05:50:59;101120.00;;;10.05;94.88
71248;BME280;73325;51.138;6.950;2024-02-14T05:53:31;101120.00;;;10.02;95.05
71248;BME280;73325;51.138;6.950;2024-02-14T05:56:01;101120.00;;;10.00;95.19
71248;BME280;73325;51.138;6.950;2024-02-14T05:58:31;101120.00;;;9.98;95.23
71248;BME280;73325;51.138;6.950;2024-02-14T06:01:02;101119.00;;;9.97;95.29
71248;BME280;73325;51.138;6.950;2024-02-14T06:03:32;101120.00;;;9.96;95.38
71248;BME280;73325;51.138;6.950;2024-02-14T06:06:03;101120.00;;;9.96;95.48
71248;BME280;73325;51.138;6.950;2024-02-14T06:08:32;101120.00;;;9.96;95.54
71248;BME280;73325;51.138;6.950;2024-02-14T06:11:03;101120.00;;;9.96;95.62
71248;BME280;73325;51.138;6.950;2024-02-14T06:13:34;101121.00;;;9.96;95.62
71248;BME280;73325;51.138;6.950;2024-02-14T06:16:05;101122.00;;;9.97;95.52
71248;BME280;73325;51.138;6.950;2024-02-14T06:18:35;101122.00;;;9.98;95.49
71248;BME280;73325;51.138;6.950;2024-02-14T06:21:07;101123.00;;;9.99;95.55
71248;BME280;73325;51.138;6.950;2024-02-14T06:23:35;101124.00;;;10.00;95.49
71248;BME280;73325;51.138;6.950;2024-02-14T06:26:07;101126.00;;;10.01;95.52
71248;BME280;73325;51.138;6.950;2024-02-14T06:28:38;101127.00;;;10.01;95.49
71248;BME280;73325;51.138;6.950;2024-02-14T06:31:10;101129.00;;;10.02;95.39
71248;BME280;73325;51.138;6.950;2024-02-14T06:33:38;101130.00;;;10.03;95.37
71248;BME280;73325;51.138;6.950;2024-02-14T06:36:10;101132.00;;;10.03;95.41
71248;BME280;73325;51.138;6.950;2024-02-14T06:38:39;101133.00;;;10.04;95.41
71248;BME280;73325;51.138;6.950;2024-02-14T06:41:10;101135.00;;;10.05;95.36
71248;BME280;73325;51.138;6.950;2024-02-14T06:43:40;101135.00;;;10.06;95.61
71248;BME280;73325;51.138;6.950;2024-02-14T06:46:09;101135.00;;;10.07;95.86
71248;BME280;73325;51.138;6.950;2024-02-14T06:48:40;101137.00;;;10.07;95.99
71248;BME280;73325;51.138;6.950;2024-02-14T06:51:12;101138.00;;;10.08;96.02
71248;BME280;73325;51.138;6.950;2024-02-14T06:53:41;101141.00;;;10.08;96.03
71248;BME280;73325;51.138;6.950;2024-02-14T06:56:12;101144.00;;;10.08;96.05
71248;BME280;73325;51.138;6.950;2024-02-14T06:58:43;101146.00;;;10.09;95.95
71248;BME280;73325;51.138;6.950;2024-02-14T07:01:13;101148.00;;;10.09;95.96
71248;BME280;73325;51.138;6.950;2024-02-14T07:03:43;101150.00;;;10.10;95.95
71248;BME280;73325;51.138;6.950;2024-02-14T07:06:14;101151.00;;;10.11;95.96
71248;BME280;73325;51.138;6.950;2024-02-14T07:08:45;101153.00;;;10.12;95.88
71248;BME280;73325;51.138;6.950;2024-02-14T07:11:19;101156.00;;;10.13;95.81
71248;BME280;73325;51.138;6.950;2024-02-14T07:14:09;101158.00;;;10.14;95.67
71248;BME280;73325;51.138;6.950;2024-02-14T07:16:17;101161.00;;;10.15;95.70
71248;BME280;73325;51.138;6.950;2024-02-14T07:18:47;101164.00;;;10.17;95.64
71248;BME280;73325;51.138;6.950;2024-02-14T07:21:18;101168.00;;;10.18;95.67
71248;BME280;73325;51.138;6.950;2024-02-14T07:23:52;101170.00;;;10.19;95.62
71248;BME280;73325;51.138;6.950;2024-02-14T07:26:26;101171.00;;;10.21;95.59
71248;BME280;73325;51.138;6.950;2024-02-14T07:28:49;101173.00;;;10.22;95.63
71248;BME280;73325;51.138;6.950;2024-02-14T07:31:19;101175.00;;;10.23;95.61
71248;BME280;73325;51.138;6.950;2024-02-14T07:33:50;101176.00;;;10.24;95.53
71248;BME280;73325;51.138;6.950;2024-02-14T07:36:20;101177.00;;;10.25;95.52
71248;BME280;73325;51.138;6.950;2024-02-14T07:38:49;101176.00;;;10.27;95.48
71248;BME280;73325;51.138;6.950;2024-02-14T07:41:20;101177.00;;;10.28;95.46
71248;BME280;73325;51.138;6.950;2024-02-14T07:43:51;101177.00;;;10.29;95.31
71248;BME280;73325;51.138;6.950;2024-02-14T07:46:21;101178.00;;;10.31;95.31
71248;BME280;73325;51.138;6.950;2024-02-14T07:48:52;101180.00;;;10.32;95.07
71248;BME280;73325;51.138;6.950;2024-02-14T07:51:21;101182.00;;;10.34;95.10
71248;BME280;73325;51.138;6.950;2024-02-14T07:53:51;101183.00;;;10.35;94.96
71248;BME280;73325;51.138;6.950;2024-02-14T07:56:22;101186.00;;;10.37;94.86
71248;BME280;73325;51.138;6.950;2024-02-14T07:58:53;101187.00;;;10.39;94.78
71248;BME280;73325;51.138;6.950;2024-02-14T08:01:23;101188.00;;;10.42;94.67
71248;BME280;73325;51.138;6.950;2024-02-14T08:03:54;101187.00;;;10.44;94.55
71248;BME280;73325;51.138;6.950;2024-02-14T08:06:24;101187.00;;;10.47;94.21
71248;BME280;73325;51.138;6.950;2024-02-14T08:08:54;101188.00;;;10.50;94.27
71248;BME280;73325;51.138;6.950;2024-02-14T08:11:25;101190.00;;;10.54;94.08
71248;BME280;73325;51.138;6.950;2024-02-14T08:13:55;101192.00;;;10.57;93.99
71248;BME280;73325;51.138;6.950;2024-02-14T08:16:26;101194.00;;;10.60;93.92
71248;BME280;73325;51.138;6.950;2024-02-14T08:18:55;101195.00;;;10.62;93.78
71248;BME280;73325;51.138;6.950;2024-02-14T08:21:26;101196.00;;;10.64;93.86
71248;BME280;73325;51.138;6.950;2024-02-14T08:23:56;101196.00;;;10.66;93.61
71248;BME280;73325;51.138;6.950;2024-02-14T08:26:26;101195.00;;;10.68;93.70
71248;BME280;73325;51.138;6.950;2024-02-14T08:28:57;101194.00;;;10.70;93.61
71248;BME280;73325;51.138;6.950;2024-02-14T08:31:27;101194.00;;;10.72;93.88
71248;BME280;73325;51.138;6.950;2024-02-14T08:33:58;101195.00;;;10.75;94.13
71248;BME280;73325;51.138;6.950;2024-02-14T08:36:28;101197.00;;;10.78;93.84
71248;BME280;73325;51.138;6.950;2024-02-14T08:38:59;101197.00;;;10.81;93.96
71248;BME280;73325;51.138;6.950;2024-02-14T08:41:29;101197.00;;;10.85;93.82
71248;BME280;73325;51.138;6.950;2024-02-14T08:43:59;101198.00;;;10.88;93.59
71248;BME280;73325;51.138;6.950;2024-02-14T08:46:30;101199.00;;;10.92;93.46
71248;BME280;73325;51.138;6.950;2024-02-14T08:49:01;101201.00;;;10.95;93.53
71248;BME280;73325;51.138;6.950;2024-02-14T08:51:31;101204.00;;;10.98;93.54
71248;BME280;73325;51.138;6.950;2024-02-14T08:54:01;101206.00;;;11.02;94.28
71248;BME280;73325;51.138;6.950;2024-02-14T08:56:31;101210.00;;;11.04;94.80
71248;BME280;73325;51.138;6.950;2024-02-14T08:59:03;101212.00;;;11.06;94.66
71248;BME280;73325;51.138;6.950;2024-02-14T09:01:33;101214.00;;;11.08;94.52
71248;BME280;73325;51.138;6.950;2024-02-14T09:04:03;101215.00;;;11.09;94.49
71248;BME280;73325;51.138;6.950;2024-02-14T09:06:38;101215.00;;;11.10;94.19
71248;BME280;73325;51.138;6.950;2024-02-14T09:09:07;101215.00;;;11.10;94.53
71248;BME280;73325;51.138;6.950;2024-02-14T09:11:36;101215.00;;;11.11;94.77
71248;BME280;73325;51.138;6.950;2024-02-14T09:14:07;101215.00;;;11.12;94.66
71248;BME280;73325;51.138;6.950;2024-02-14T09:16:37;101213.00;;;11.14;94.36
71248;BME280;73325;51.138;6.950;2024-02-14T09:19:08;101213.00;;;11.15;94.39
71248;BME280;73325;51.138;6.950;2024-02-14T09:21:37;101212.00;;;11.17;94.22
71248;BME280;73325;51.138;6.950;2024-02-14T09:24:09;101212.00;;;11.20;94.14
71248;BME280;73325;51.138;6.950;2024-02-14T09:26:40;101212.00;;;11.24;93.95
71248;BME280;73325;51.138;6.950;2024-02-14T09:29:11;101212.00;;;11.30;93.63
71248;BME280;73325;51.138;6.950;2024-02-14T09:31:41;101212.00;;;11.36;93.54
71248;BME280;73325;51.138;6.950;2024-02-14T09:34:12;101211.00;;;11.43;93.33
71248;BME280;73325;51.138;6.950;2024-02-14T09:36:42;101211.00;;;11.50;93.07
71248;BME280;73325;51.138;6.950;2024-02-14T09:39:14;101208.00;;;11.58;93.10
71248;BME280;73325;51.138;6.950;2024-02-14T09:41:44;101209.00;;;11.66;92.69
71248;BME280;73325;51.138;6.950;2024-02-14T09:44:29;101209.00;;;11.74;92.58
71248;BME280;73325;51.138;6.950;2024-02-14T09:46:44;101211.00;;;11.82;91.68
71248;BME280;73325;51.138;6.950;2024-02-14T09:49:14;101212.00;;;11.89;92.00
71248;BME280;73325;51.138;6.950;2024-02-14T09:51:45;101212.00;;;11.95;91.68
71248;BME280;73325;51.138;6.950;2024-02-14T09:54:16;101213.00;;;12.01;91.54
71248;BME280;73325;51.138;6.950;2024-02-14T09:56:51;101214.00;;;12.06;91.23
71248;BME280;73325;51.138;6.950;2024-02-14T09:59:15;101216.00;;;12.11;90.99
71248;BME280;73325;51.138;6.950;2024-02-14T10:01:47;101219.00;;;12.16;90.62
71248;BME280;73325;51.138;6.950;2024-02-14T10:04:18;101221.00;;;12.19;90.92
71248;BME280;73325;51.138;6.950;2024-02-14T10:06:48;101224.00;;;12.22;90.28
71248;BME280;73325;51.138;6.950;2024-02-14T10:09:20;101226.00;;;12.25;90.09
71248;BME280;73325;51.138;6.950;2024-02-14T10:11:50;101229.00;;;12.27;90.07
71248;BME280;73325;51.138;6.950;2024-02-14T10:14:25;101231.00;;;12.30;89.80
71248;BME280;73325;51.138;6.950;2024-02-14T10:17:05;101233.00;;;12.34;89.82
71248;BME280;73325;51.138;6.950;2024-02-14T10:26:56;101238.00;;;12.41;92.20
71248;BME280;73325;51.138;6.950;2024-02-14T10:29:22;101240.00;;;12.40;92.18
71248;BME280;73325;51.138;6.950;2024-02-14T10:31:53;101242.00;;;12.39;92.07
71248;BME280;73325;51.138;6.950;2024-02-14T10:34:26;101242.00;;;12.37;91.64
71248;BME280;73325;51.138;6.950;2024-02-14T10:37:08;101243.00;;;12.36;92.05
71248;BME280;73325;51.138;6.950;2024-02-14T10:39:33;101243.00;;;12.34;92.33
71248;BME280;73325;51.138;6.950;2024-02-14T10:41:54;101243.00;;;12.33;91.78
71248;BME280;73325;51.138;6.950;2024-02-14T10:44:26;101243.00;;;12.33;91.54
71248;BME280;73325;51.138;6.950;2024-02-14T10:47:02;101243.00;;;12.35;91.30
71248;BME280;73325;51.138;6.950;2024-02-14T10:49:28;101243.00;;;12.37;90.93
71248;BME280;73325;51.138;6.950;2024-02-14T10:51:59;101244.00;;;12.41;91.31
71248;BME280;73325;51.138;6.950;2024-02-14T10:54:29;101244.00;;;12.44;91.99
71248;BME280;73325;51.138;6.950;2024-02-14T10:57:06;101245.00;;;12.46;92.25
71248;BME280;73325;51.138;6.950;2024-02-14T10:59:31;101246.00;;;12.46;92.36
71248;BME280;73325;51.138;6.950;2024-02-14T11:02:00;101247.00;;;12.47;92.14
71248;BME280;73325;51.138;6.950;2024-02-14T11:04:32;101250.00;;;12.47;92.83
71248;BME280;73325;51.138;6.950;2024-02-14T11:07:02;101251.00;;;12.47;93.37
71248;BME280;73325;51.138;6.950;2024-02-14T11:09:35;101253.00;;;12.46;94.18
71248;BME280;73325;51.138;6.950;2024-02-14T11:12:07;101253.00;;;12.44;94.38
71248;BME280;73325;51.138;6.950;2024-02-14T11:14:34;101253.00;;;12.41;94.69
71248;BME280;73325;51.138;6.950;2024-02-14T11:17:14;101254.00;;;12.38;94.90
71248;BME280;73325;51.138;6.950;2024-02-14T11:22:33;101257.00;;;12.29;95.85
71248;BME280;73325;51.138;6.950;2024-02-14T11:24:56;101259.00;;;12.24;96.07
71248;BME280;73325;51.138;6.950;2024-02-14T11:27:10;101259.00;;;12.20;96.37
71248;BME280;73325;51.138;6.950;2024-02-14T11:29:39;101258.00;;;12.16;96.50
71248;BME280;73325;51.138;6.950;2024-02-14T11:32:08;101258.00;;;12.14;96.81
71248;BME280;73325;51.138;6.950;2024-02-14T11:35:04;101257.00;;;12.13;97.01
71248;BME280;73325;51.138;6.950;2024-02-14T11:37:10;101256.00;;;12.16;97.50
71248;BME280;73325;51.138;6.950;2024-02-14T11:39:39;101256.00;;;12.20;97.44
71248;BME280;73325;51.138;6.950;2024-02-14T11:42:09;101257.00;;;12.26;96.93
71248;BME280;73325;51.138;6.950;2024-02-14T11:44:40;101258.00;;;12.32;96.72
71248;BME280;73325;51.138;6.950;2024-02-14T11:47:11;101256.00;;;12.38;96.28
71248;BME280;73325;51.138;6.950;2024-02-14T11:49:42;101254.00;;;12.44;96.18
71248;BME280;73325;51.138;6.950;2024-02-14T11:52:14;101252.00;;;12.51;95.96
71248;BME280;73325;51.138;6.950;2024-02-14T11:54:47;101251.00;;;12.58;95.59
71248;BME280;73325;51.138;6.950;2024-02-14T11:57:22;101250.00;;;12.65;95.61
71248;BME280;73325;51.138;6.950;2024-02-14T11:59:44;101247.00;;;12.72;95.06
71248;BME280;73325;51.138;6.950;2024-02-14T12:02:14;101246.00;;;12.79;94.51
71248;BME280;73325;51.138;6.950;2024-02-14T12:04:45;101246.00;;;12.84;94.46
71248;BME280;73325;51.138;6.950;2024-02-14T12:07:16;101245.00;;;12.89;94.62
71248;BME280;73325;51.138;6.950;2024-02-14T12:09:46;101244.00;;;12.93;94.37
71248;BME280;73325;51.138;6.950;2024-02-14T12:12:17;101244.00;;;12.96;94.17
71248;BME280;73325;51.138;6.950;2024-02-14T12:14:51;101243.00;;;12.97;94.19
71248;BME280;73325;51.138;6.950;2024-02-14T12:17:18;101242.00;;;12.96;93.95
71248;BME280;73325;51.138;6.950;2024-02-14T12:19:50;101241.00;;;12.95;93.86
71248;BME280;73325;51.138;6.950;2024-02-14T12:22:20;101241.00;;;12.94;94.06
71248;BME280;73325;51.138;6.950;2024-02-14T12:24:56;101241.00;;;12.93;94.27
71248;BME280;73325;51.138;6.950;2024-02-14T12:27:33;101241.00;;;12.92;94.84
71248;BME280;73325;51.138;6.950;2024-02-14T12:29:54;101241.00;;;12.90;95.57
71248;BME280;73325;51.138;6.950;2024-02-14T12:32:23;101239.00;;;12.88;95.84
71248;BME280;73325;51.138;6.950;2024-02-14T12:34:53;101238.00;;;12.85;96.25
71248;BME280;73325;51.138;6.950;2024-02-14T12:37:24;101238.00;;;12.82;96.45
71248;BME280;73325;51.138;6.950;2024-02-14T12:39:54;101237.00;;;12.78;96.64
71248;BME280;73325;51.138;6.950;2024-02-14T13:22:27;101216.00;;;12.55;97.80
71248;BME280;73325;51.138;6.950;2024-02-14T13:24:58;101214.00;;;12.57;97.28
71248;BME280;73325;51.138;6.950;2024-02-14T13:27:27;101213.00;;;12.59;97.23
71248;BME280;73325;51.138;6.950;2024-02-14T13:29:58;101214.00;;;12.62;97.14
71248;BME280;73325;51.138;6.950;2024-02-14T13:32:30;101214.00;;;12.64;96.95
71248;BME280;73325;51.138;6.950;2024-02-14T13:35:00;101213.00;;;12.66;96.87
71248;BME280;73325;51.138;6.950;2024-02-14T13:37:31;101211.00;;;12.68;96.81
71248;BME280;73325;51.138;6.950;2024-02-14T13:40:01;101210.00;;;12.69;96.70
71248;BME280;73325;51.138;6.950;2024-02-14T13:42:33;101211.00;;;12.70;97.02
71248;BME280;73325;51.138;6.950;2024-02-14T13:45:01;101212.00;;;12.70;97.02
71248;BME280;73325;51.138;6.950;2024-02-14T13:47:33;101210.00;;;12.69;96.85
71248;BME280;73325;51.138;6.950;2024-02-14T13:50:05;101208.00;;;12.68;96.94
71248;BME280;73325;51.138;6.950;2024-02-14T13:52:35;101206.00;;;12.66;97.18
71248;BME280;73325;51.138;6.950;2024-02-14T13:55:05;101205.00;;;12.63;97.34
71248;BME280;73325;51.138;6.950;2024-02-14T13:57:38;101205.00;;;12.61;97.61
71248;BME280;73325;51.138;6.950;2024-02-14T14:00:13;101204.00;;;12.58;97.81
71248;BME280;73325;51.138;6.950;2024-02-14T14:02:37;101203.00;;;12.55;98.04
71248;BME280;73325;51.138;6.950;2024-02-14T14:05:06;101200.00;;;12.52;98.10
71248;BME280;73325;51.138;6.950;2024-02-14T14:07:39;101198.00;;;12.50;98.16